sensor_id;sensor_type;location;lat;lon;timestamp;P1;durP1;ratioP1;P2;durP2;ratioP2
74867;SDS011;63419;42.262;12.210;2023-05-10T00:00:40;16.52;;;8.18;;
74867;SDS011;63419;42.262;12.210;2023-05-10T00:03:07;16.75;;;8.23;;
74867;SDS011;63419;42.262;12.210;2023-05-10T00:08:01;18.42;;;9.20;;
74867;SDS011;63419;42.262;12.210;2023-05-10T00:10:28;18.48;;;10.07;;
74867;SDS011;63419;42.262;12.210;2023-05-10T00:12:55;22.38;;;11.30;;
74867;SDS011;63419;42.262;12.210;2023-05-10T00:15:22;20.08;;;10.60;;
74867;SDS011;63419;42.262;12.210;2023-05-10T00:17:49;19.75;;;10.15;;
74867;SDS011;63419;42.262;12.210;2023-05-10T00:20:16;21.17;;;9.80;;
74867;SDS011;63419;42.262;12.210;2023-05-10T00:25:10;19.73;;;10.60;;
74867;SDS011;63419;42.262;12.210;2023-05-10T00:27:37;19.77;;;9.18;;
74867;SDS011;63419;42.262;12.210;2023-05-10T00:30:04;20.35;;;10.10;;
74867;SDS011;63419;42.262;12.210;2023-05-10T00:32:33;22.45;;;9.73;;
74867;SDS011;63419;42.262;12.210;2023-05-10T00:34:59;19.23;;;9.30;;
74867;SDS011;63419;42.262;12.210;2023-05-10T00:37:27;18.40;;;8.85;;
74867;SDS011;63419;42.262;12.210;2023-05-10T00:39:53;18.83;;;8.73;;
74867;SDS011;63419;42.262;12.210;2023-05-10T00:42:20;19.05;;;8.73;;
74867;SDS011;63419;42.262;12.210;2023-05-10T00:44:48;17.50;;;7.88;;
74867;SDS011;63419;42.262;12.210;2023-05-10T00:47:15;15.65;;;7.65;;
74867;SDS011;63419;42.262;12.210;2023-05-10T00:49:43;14.43;;;7.65;;
74867;SDS011;63419;42.262;12.210;2023-05-10T00:52:10;15.10;;;7.38;;
74867;SDS011;63419;42.262;12.210;2023-05-10T00:54:37;14.60;;;7.68;;
74867;SDS011;63419;42.262;12.210;2023-05-10T00:57:04;18.70;;;8.20;;
74867;SDS011;63419;42.262;12.210;2023-05-10T00:59:31;14.32;;;7.43;;
74867;SDS011;63419;42.262;12.210;2023-05-10T01:01:58;16.33;;;8.02;;
74867;SDS011;63419;42.262;12.210;2023-05-10T01:04:25;17.90;;;8.07;;
74867;SDS011;63419;42.262;12.210;2023-05-10T01:06:52;22.48;;;9.20;;
74867;SDS011;63419;42.262;12.210;2023-05-10T01:09:20;16.52;;;8.07;;
74867;SDS011;63419;42.262;12.210;2023-05-10T01:11:48;17.38;;;8.45;;
74867;SDS011;63419;42.262;12.210;2023-05-10T01:14:17;20.02;;;9.57;;
74867;SDS011;63419;42.262;12.210;2023-05-10T01:16:45;20.15;;;9.57;;
74867;SDS011;63419;42.262;12.210;2023-05-10T01:19:25;23.27;;;9.98;;
74867;SDS011;63419;42.262;12.210;2023-05-10T01:21:58;19.00;;;8.27;;
74867;SDS011;63419;42.262;12.210;2023-05-10T01:33:38;13.88;;;6.85;;
74867;SDS011;63419;42.262;12.210;2023-05-10T01:36:13;15.68;;;7.70;;
74867;SDS011;63419;42.262;12.210;2023-05-10T01:42:02;17.70;;;7.53;;
74867;SDS011;63419;42.262;12.210;2023-05-10T01:44:35;13.68;;;6.97;;
74867;SDS011;63419;42.262;12.210;2023-05-10T01:47:14;16.75;;;7.80;;
74867;SDS011;63419;42.262;12.210;2023-05-10T01:49:49;16.25;;;8.27;;
74867;SDS011;63419;42.262;12.210;2023-05-10T01:52:19;17.23;;;9.10;;
74867;SDS011;63419;42.262;12.210;2023-05-10T01:55:00;18.02;;;9.00;;
74867;SDS011;63419;42.262;12.210;2023-05-10T01:57:34;20.20;;;8.15;;
74867;SDS011;63419;42.262;12.210;2023-05-10T02:00:03;19.00;;;8.43;;
74867;SDS011;63419;42.262;12.210;2023-05-10T02:02:36;17.65;;;8.88;;
74867;SDS011;63419;42.262;12.210;2023-05-10T02:05:05;17.75;;;8.90;;
74867;SDS011;63419;42.262;12.210;2023-05-10T02:07:34;18.02;;;8.35;;
74867;SDS011;63419;42.262;12.210;2023-05-10T02:10:03;16.15;;;7.60;;
74867;SDS011;63419;42.262;12.210;2023-05-10T02:12:32;17.95;;;8.43;;
74867;SDS011;63419;42.262;12.210;2023-05-10T02:15:04;21.20;;;9.73;;
74867;SDS011;63419;42.262;12.210;2023-05-10T02:17:34;15.20;;;7.15;;
74867;SDS011;63419;42.262;12.210;2023-05-10T02:20:03;20.30;;;9.50;;
74867;SDS011;63419;42.262;12.210;2023-05-10T02:22:32;19.08;;;8.60;;
74867;SDS011;63419;42.262;12.210;2023-05-10T02:25:01;22.90;;;9.45;;
74867;SDS011;63419;42.262;12.210;2023-05-10T02:27:29;19.75;;;9.30;;
74867;SDS011;63419;42.262;12.210;2023-05-10T02:29:57;18.75;;;9.05;;
74867;SDS011;63419;42.262;12.210;2023-05-10T02:32:25;18.67;;;8.40;;
74867;SDS011;63419;42.262;12.210;2023-05-10T02:34:53;18.25;;;8.55;;
74867;SDS011;63419;42.262;12.210;2023-05-10T02:37:21;18.58;;;8.65;;
74867;SDS011;63419;42.262;12.210;2023-05-10T02:39:49;18.60;;;8.68;;
74867;SDS011;63419;42.262;12.210;2023-05-10T02:42:17;16.30;;;8.40;;
74867;SDS011;63419;42.262;12.210;2023-05-10T02:44:47;18.80;;;9.15;;
74867;SDS011;63419;42.262;12.210;2023-05-10T02:47:15;17.30;;;8.90;;
74867;SDS011;63419;42.262;12.210;2023-05-10T02:49:44;19.13;;;9.48;;
74867;SDS011;63419;42.262;12.210;2023-05-10T02:52:11;19.90;;;9.45;;
74867;SDS011;63419;42.262;12.210;2023-05-10T02:54:50;15.70;;;8.05;;
74867;SDS011;63419;42.262;12.210;2023-05-10T02:57:22;16.00;;;8.02;;
74867;SDS011;63419;42.262;12.210;2023-05-10T02:59:54;19.00;;;9.07;;
74867;SDS011;63419;42.262;12.210;2023-05-10T03:02:21;18.17;;;8.75;;
74867;SDS011;63419;42.262;12.210;2023-05-10T03:04:48;16.90;;;7.80;;
74867;SDS011;63419;42.262;12.210;2023-05-10T03:07:16;16.95;;;8.30;;
74867;SDS011;63419;42.262;12.210;2023-05-10T03:09:45;17.35;;;8.45;;
74867;SDS011;63419;42.262;12.210;2023-05-10T03:12:18;16.33;;;8.73;;
74867;SDS011;63419;42.262;12.210;2023-05-10T03:21:14;18.60;;;7.82;;
74867;SDS011;63419;42.262;12.210;2023-05-10T03:23:50;20.35;;;9.18;;
74867;SDS011;63419;42.262;12.210;2023-05-10T03:26:25;19.45;;;9.90;;
74867;SDS011;63419;42.262;12.210;2023-05-10T03:28:53;18.15;;;9.07;;
74867;SDS011;63419;42.262;12.210;2023-05-10T03:31:21;18.02;;;9.43;;
74867;SDS011;63419;42.262;12.210;2023-05-10T03:33:49;19.13;;;9.70;;
74867;SDS011;63419;42.262;12.210;2023-05-10T03:36:17;19.40;;;10.02;;
74867;SDS011;63419;42.262;12.210;2023-05-10T03:38:45;21.65;;;9.65;;
74867;SDS011;63419;42.262;12.210;2023-05-10T03:41:12;16.60;;;8.90;;
74867;SDS011;63419;42.262;12.210;2023-05-10T03:43:39;22.27;;;9.02;;
74867;SDS011;63419;42.262;12.210;2023-05-10T03:46:06;19.20;;;9.45;;
74867;SDS011;63419;42.262;12.210;2023-05-10T03:48:33;18.48;;;9.38;;
74867;SDS011;63419;42.262;12.210;2023-05-10T03:53:27;16.27;;;7.68;;
74867;SDS011;63419;42.262;12.210;2023-05-10T03:55:53;17.63;;;7.90;;
74867;SDS011;63419;42.262;12.210;2023-05-10T03:58:20;15.25;;;8.50;;
74867;SDS011;63419;42.262;12.210;2023-05-10T04:03:15;14.27;;;6.53;;
74867;SDS011;63419;42.262;12.210;2023-05-10T04:08:09;16.63;;;7.43;;
74867;SDS011;63419;42.262;12.210;2023-05-10T04:10:35;16.63;;;7.00;;
74867;SDS011;63419;42.262;12.210;2023-05-10T04:13:02;14.20;;;7.32;;
74867;SDS011;63419;42.262;12.210;2023-05-10T04:15:30;14.52;;;7.47;;
74867;SDS011;63419;42.262;12.210;2023-05-10T04:17:56;14.80;;;7.80;;
74867;SDS011;63419;42.262;12.210;2023-05-10T04:22:51;15.10;;;7.03;;
74867;SDS011;63419;42.262;12.210;2023-05-10T04:25:18;12.80;;;6.43;;
74867;SDS011;63419;42.262;12.210;2023-05-10T04:27:44;13.38;;;6.90;;
74867;SDS011;63419;42.262;12.210;2023-05-10T04:30:11;12.88;;;7.15;;
74867;SDS011;63419;42.262;12.210;2023-05-10T04:35:05;13.20;;;6.45;;
74867;SDS011;63419;42.262;12.210;2023-05-10T04:37:33;14.57;;;7.30;;
74867;SDS011;63419;42.262;12.210;2023-05-10T04:39:59;13.38;;;7.38;;
74867;SDS011;63419;42.262;12.210;2023-05-10T04:42:27;11.98;;;6.60;;
74867;SDS011;63419;42.262;12.210;2023-05-10T04:44:53;16.52;;;8.35;;
74867;SDS011;63419;42.262;12.210;2023-05-10T04:49:47;19.25;;;8.75;;
74867;SDS011;63419;42.262;12.210;2023-05-10T04:52:14;19.23;;;9.35;;
74867;SDS011;63419;42.262;12.210;2023-05-10T04:54:43;19.15;;;9.07;;
74867;SDS011;63419;42.262;12.210;2023-05-10T04:57:10;21.00;;;10.18;;
74867;SDS011;63419;42.262;12.210;2023-05-10T04:59:37;21.40;;;10.68;;
74867;SDS011;63419;42.262;12.210;2023-05-10T05:02:04;21.60;;;9.68;;
74867;SDS011;63419;42.262;12.210;2023-05-10T05:04:31;20.67;;;8.50;;
74867;SDS011;63419;42.262;12.210;2023-05-10T05:06:59;16.35;;;7.80;;
74867;SDS011;63419;42.262;12.210;2023-05-10T05:09:26;18.38;;;9.80;;
74867;SDS011;63419;42.262;12.210;2023-05-10T05:11:53;22.35;;;8.00;;
74867;SDS011;63419;42.262;12.210;2023-05-10T05:14:20;18.52;;;9.00;;
74867;SDS011;63419;42.262;12.210;2023-05-10T05:16:51;16.38;;;7.95;;
74867;SDS011;63419;42.262;12.210;2023-05-10T05:19:19;17.10;;;7.53;;
74867;SDS011;63419;42.262;12.210;2023-05-10T05:21:46;17.77;;;8.57;;
74867;SDS011;63419;42.262;12.210;2023-05-10T05:24:13;22.98;;;9.75;;
74867;SDS011;63419;42.262;12.210;2023-05-10T05:26:40;19.13;;;9.38;;
74867;SDS011;63419;42.262;12.210;2023-05-10T05:29:07;19.67;;;8.60;;
74867;SDS011;63419;42.262;12.210;2023-05-10T05:31:34;17.77;;;7.95;;
74867;SDS011;63419;42.262;12.210;2023-05-10T05:34:01;18.15;;;7.43;;
74867;SDS011;63419;42.262;12.210;2023-05-10T05:36:28;16.73;;;7.28;;
74867;SDS011;63419;42.262;12.210;2023-05-10T05:38:57;13.85;;;6.93;;
74867;SDS011;63419;42.262;12.210;2023-05-10T05:41:24;14.00;;;7.00;;
74867;SDS011;63419;42.262;12.210;2023-05-10T05:43:51;15.63;;;7.80;;
74867;SDS011;63419;42.262;12.210;2023-05-10T05:46:18;22.73;;;10.57;;
74867;SDS011;63419;42.262;12.210;2023-05-10T05:48:45;16.48;;;7.75;;
74867;SDS011;63419;42.262;12.210;2023-05-10T05:51:12;13.38;;;6.55;;
74867;SDS011;63419;42.262;12.210;2023-05-10T05:53:39;14.63;;;7.43;;
74867;SDS011;63419;42.262;12.210;2023-05-10T05:56:05;13.20;;;6.57;;
74867;SDS011;63419;42.262;12.210;2023-05-10T05:58:34;16.45;;;6.63;;
74867;SDS011;63419;42.262;12.210;2023-05-10T06:01:01;11.98;;;5.90;;
74867;SDS011;63419;42.262;12.210;2023-05-10T06:03:28;12.43;;;5.82;;
74867;SDS011;63419;42.262;12.210;2023-05-10T06:05:55;17.10;;;6.43;;
74867;SDS011;63419;42.262;12.210;2023-05-10T06:08:22;12.77;;;5.95;;
74867;SDS011;63419;42.262;12.210;2023-05-10T06:10:49;11.40;;;5.82;;
74867;SDS011;63419;42.262;12.210;2023-05-10T06:13:16;11.95;;;5.35;;
74867;SDS011;63419;42.262;12.210;2023-05-10T06:15:43;8.68;;;4.15;;
74867;SDS011;63419;42.262;12.210;2023-05-10T06:18:09;10.80;;;5.22;;
74867;SDS011;63419;42.262;12.210;2023-05-10T06:20:36;12.05;;;5.00;;
74867;SDS011;63419;42.262;12.210;2023-05-10T06:23:03;10.98;;;4.95;;
74867;SDS011;63419;42.262;12.210;2023-05-10T06:25:30;10.70;;;5.15;;
74867;SDS011;63419;42.262;12.210;2023-05-10T06:27:57;13.13;;;6.60;;
74867;SDS011;63419;42.262;12.210;2023-05-10T06:30:25;13.63;;;5.20;;
74867;SDS011;63419;42.262;12.210;2023-05-10T06:32:55;12.30;;;6.25;;
74867;SDS011;63419;42.262;12.210;2023-05-10T06:35:22;16.35;;;8.27;;
74867;SDS011;63419;42.262;12.210;2023-05-10T06:37:49;14.63;;;7.53;;
74867;SDS011;63419;42.262;12.210;2023-05-10T06:40:17;11.18;;;5.10;;
74867;SDS011;63419;42.262;12.210;2023-05-10T06:42:45;13.20;;;7.35;;
74867;SDS011;63419;42.262;12.210;2023-05-10T06:45:13;10.05;;;6.07;;
74867;SDS011;63419;42.262;12.210;2023-05-10T06:47:41;10.13;;;5.00;;
74867;SDS011;63419;42.262;12.210;2023-05-10T06:50:08;10.55;;;4.30;;
74867;SDS011;63419;42.262;12.210;2023-05-10T06:52:36;8.32;;;3.80;;
74867;SDS011;63419;42.262;12.210;2023-05-10T06:55:04;7.90;;;3.63;;
74867;SDS011;63419;42.262;12.210;2023-05-10T06:57:31;8.05;;;4.07;;
74867;SDS011;63419;42.262;12.210;2023-05-10T06:59:58;11.45;;;3.63;;
74867;SDS011;63419;42.262;12.210;2023-05-10T07:04:52;6.60;;;2.90;;
74867;SDS011;63419;42.262;12.210;2023-05-10T07:07:20;7.25;;;3.28;;
74867;SDS011;63419;42.262;12.210;2023-05-10T07:09:47;6.20;;;2.50;;
74867;SDS011;63419;42.262;12.210;2023-05-10T07:12:16;6.00;;;2.78;;
74867;SDS011;63419;42.262;12.210;2023-05-10T07:17:10;6.80;;;2.90;;
74867;SDS011;63419;42.262;12.210;2023-05-10T07:19:37;7.18;;;2.55;;
74867;SDS011;63419;42.262;12.210;2023-05-10T07:22:04;6.13;;;2.60;;
74867;SDS011;63419;42.262;12.210;2023-05-10T07:24:31;6.60;;;2.70;;
74867;SDS011;63419;42.262;12.210;2023-05-10T07:26:59;7.57;;;2.60;;
74867;SDS011;63419;42.262;12.210;2023-05-10T07:31:53;5.35;;;2.00;;
74867;SDS011;63419;42.262;12.210;2023-05-10T07:34:23;4.50;;;1.80;;
74867;SDS011;63419;42.262;12.210;2023-05-10T07:36:51;5.93;;;2.17;;
74867;SDS011;63419;42.262;12.210;2023-05-10T07:41:53;5.35;;;2.22;;
74867;SDS011;63419;42.262;12.210;2023-05-10T07:44:20;7.03;;;2.17;;
74867;SDS011;63419;42.262;12.210;2023-05-10T07:46:48;7.07;;;3.20;;
74867;SDS011;63419;42.262;12.210;2023-05-10T07:49:15;6.57;;;2.85;;
74867;SDS011;63419;42.262;12.210;2023-05-10T07:54:09;5.35;;;1.90;;
74867;SDS011;63419;42.262;12.210;2023-05-10T07:56:36;5.22;;;1.83;;
74867;SDS011;63419;42.262;12.210;2023-05-10T07:59:03;6.28;;;2.28;;
74867;SDS011;63419;42.262;12.210;2023-05-10T08:01:33;7.57;;;2.40;;
74867;SDS011;63419;42.262;12.210;2023-05-10T08:04:01;5.32;;;2.08;;
74867;SDS011;63419;42.262;12.210;2023-05-10T08:06:28;5.80;;;1.90;;
74867;SDS011;63419;42.262;12.210;2023-05-10T08:08:56;4.95;;;2.03;;
74867;SDS011;63419;42.262;12.210;2023-05-10T08:11:24;5.85;;;1.45;;
74867;SDS011;63419;42.262;12.210;2023-05-10T08:13:51;5.55;;;1.90;;
74867;SDS011;63419;42.262;12.210;2023-05-10T08:16:19;5.38;;;2.00;;
74867;SDS011;63419;42.262;12.210;2023-05-10T08:18:46;4.60;;;1.63;;
74867;SDS011;63419;42.262;12.210;2023-05-10T08:23:41;4.53;;;1.27;;
74867;SDS011;63419;42.262;12.210;2023-05-10T08:26:10;4.68;;;1.00;;
74867;SDS011;63419;42.262;12.210;2023-05-10T08:31:04;4.13;;;1.27;;
74867;SDS011;63419;42.262;12.210;2023-05-10T08:33:32;5.05;;;1.52;;
74867;SDS011;63419;42.262;12.210;2023-05-10T08:35:59;4.32;;;1.00;;
74867;SDS011;63419;42.262;12.210;2023-05-10T08:38:26;5.38;;;1.40;;
74867;SDS011;63419;42.262;12.210;2023-05-10T08:40:53;6.27;;;1.47;;
74867;SDS011;63419;42.262;12.210;2023-05-10T08:43:28;4.70;;;1.40;;
74867;SDS011;63419;42.262;12.210;2023-05-10T08:45:56;6.60;;;1.73;;
74867;SDS011;63419;42.262;12.210;2023-05-10T08:48:29;4.85;;;1.23;;
74867;SDS011;63419;42.262;12.210;2023-05-10T08:50:58;4.10;;;1.60;;
74867;SDS011;63419;42.262;12.210;2023-05-10T08:53:27;4.00;;;1.30;;
74867;SDS011;63419;42.262;12.210;2023-05-10T08:55:57;3.53;;;0.88;;
74867;SDS011;63419;42.262;12.210;2023-05-10T08:58:24;3.30;;;1.00;;
74867;SDS011;63419;42.262;12.210;2023-05-10T09:00:52;4.00;;;1.17;;
74867;SDS011;63419;42.262;12.210;2023-05-10T09:03:19;4.50;;;1.10;;
74867;SDS011;63419;42.262;12.210;2023-05-10T09:08:14;3.65;;;0.90;;
74867;SDS011;63419;42.262;12.210;2023-05-10T09:10:43;3.75;;;0.90;;
74867;SDS011;63419;42.262;12.210;2023-05-10T09:13:13;4.20;;;0.80;;
74867;SDS011;63419;42.262;12.210;2023-05-10T09:15:44;4.43;;;0.88;;
74867;SDS011;63419;42.262;12.210;2023-05-10T09:18:11;3.92;;;0.90;;
74867;SDS011;63419;42.262;12.210;2023-05-10T09:20:39;3.38;;;0.75;;
74867;SDS011;63419;42.262;12.210;2023-05-10T09:23:06;3.47;;;0.93;;
74867;SDS011;63419;42.262;12.210;2023-05-10T09:25:34;2.80;;;0.73;;
74867;SDS011;63419;42.262;12.210;2023-05-10T09:30:29;3.97;;;0.65;;
74867;SDS011;63419;42.262;12.210;2023-05-10T09:32:57;3.80;;;0.80;;
74867;SDS011;63419;42.262;12.210;2023-05-10T09:35:29;3.92;;;0.65;;
74867;SDS011;63419;42.262;12.210;2023-05-10T09:37:59;4.55;;;0.93;;
74867;SDS011;63419;42.262;12.210;2023-05-10T09:40:31;2.70;;;0.80;;
74867;SDS011;63419;42.262;12.210;2023-05-10T09:45:26;3.65;;;1.10;;
74867;SDS011;63419;42.262;12.210;2023-05-10T09:47:54;5.45;;;1.20;;
74867;SDS011;63419;42.262;12.210;2023-05-10T09:50:22;4.20;;;0.98;;
74867;SDS011;63419;42.262;12.210;2023-05-10T09:55:21;4.20;;;1.05;;
74867;SDS011;63419;42.262;12.210;2023-05-10T09:57:50;6.50;;;1.30;;
74867;SDS011;63419;42.262;12.210;2023-05-10T10:00:26;4.78;;;1.63;;
74867;SDS011;63419;42.262;12.210;2023-05-10T10:02:54;5.22;;;1.40;;
74867;SDS011;63419;42.262;12.210;2023-05-10T10:05:28;4.32;;;1.40;;
74867;SDS011;63419;42.262;12.210;2023-05-10T10:07:59;5.03;;;1.50;;
74867;SDS011;63419;42.262;12.210;2023-05-10T10:10:27;5.28;;;1.30;;
74867;SDS011;63419;42.262;12.210;2023-05-10T10:12:54;4.82;;;2.00;;
74867;SDS011;63419;42.262;12.210;2023-05-10T10:15:22;7.90;;;2.33;;
74867;SDS011;63419;42.262;12.210;2023-05-10T10:17:50;5.18;;;1.77;;
74867;SDS011;63419;42.262;12.210;2023-05-10T10:20:19;5.85;;;1.67;;
74867;SDS011;63419;42.262;12.210;2023-05-10T10:22:48;5.15;;;1.73;;
74867;SDS011;63419;42.262;12.210;2023-05-10T10:25:15;7.35;;;2.10;;
74867;SDS011;63419;42.262;12.210;2023-05-10T10:30:31;6.43;;;1.98;;
74867;SDS011;63419;42.262;12.210;2023-05-10T10:36:18;4.88;;;1.35;;
74867;SDS011;63419;42.262;12.210;2023-05-10T10:41:27;7.22;;;1.45;;
74867;SDS011;63419;42.262;12.210;2023-05-10T10:49:42;6.00;;;2.10;;
74867;SDS011;63419;42.262;12.210;2023-05-10T10:52:21;6.75;;;1.77;;
74867;SDS011;63419;42.262;12.210;2023-05-10T10:54:51;4.60;;;1.80;;
74867;SDS011;63419;42.262;12.210;2023-05-10T10:57:31;5.90;;;1.85;;
74867;SDS011;63419;42.262;12.210;2023-05-10T11:07:55;6.53;;;1.30;;
74867;SDS011;63419;42.262;12.210;2023-05-10T11:10:24;7.28;;;1.45;;
74867;SDS011;63419;42.262;12.210;2023-05-10T11:12:53;3.70;;;1.00;;
74867;SDS011;63419;42.262;12.210;2023-05-10T11:18:19;6.25;;;1.10;;
74867;SDS011;63419;42.262;12.210;2023-05-10T11:20:51;4.97;;;1.23;;
74867;SDS011;63419;42.262;12.210;2023-05-10T11:23:19;5.05;;;1.83;;
74867;SDS011;63419;42.262;12.210;2023-05-10T11:25:47;4.88;;;1.15;;
74867;SDS011;63419;42.262;12.210;2023-05-10T11:28:16;8.55;;;1.25;;
74867;SDS011;63419;42.262;12.210;2023-05-10T11:30:45;4.55;;;1.15;;
74867;SDS011;63419;42.262;12.210;2023-05-10T11:33:16;6.30;;;1.35;;
74867;SDS011;63419;42.262;12.210;2023-05-10T11:35:44;5.93;;;1.73;;
74867;SDS011;63419;42.262;12.210;2023-05-10T11:40:39;6.63;;;1.30;;
74867;SDS011;63419;42.262;12.210;2023-05-10T11:43:08;4.43;;;1.40;;
74867;SDS011;63419;42.262;12.210;2023-05-10T11:45:36;5.70;;;1.65;;
74867;SDS011;63419;42.262;12.210;2023-05-10T11:48:04;4.18;;;1.48;;
74867;SDS011;63419;42.262;12.210;2023-05-10T11:50:31;5.93;;;1.33;;
74867;SDS011;63419;42.262;12.210;2023-05-10T11:53:17;6.90;;;1.50;;
74867;SDS011;63419;42.262;12.210;2023-05-10T11:55:47;6.82;;;1.42;;
74867;SDS011;63419;42.262;12.210;2023-05-10T11:58:14;3.92;;;1.05;;
74867;SDS011;63419;42.262;12.210;2023-05-10T12:00:41;4.65;;;0.80;;
74867;SDS011;63419;42.262;12.210;2023-05-10T12:03:08;4.55;;;1.23;;
74867;SDS011;63419;42.262;12.210;2023-05-10T12:05:37;4.40;;;1.48;;
74867;SDS011;63419;42.262;12.210;2023-05-10T12:08:12;5.50;;;1.02;;
74867;SDS011;63419;42.262;12.210;2023-05-10T12:10:46;4.05;;;1.15;;
74867;SDS011;63419;42.262;12.210;2023-05-10T12:13:14;7.22;;;1.00;;
74867;SDS011;63419;42.262;12.210;2023-05-10T12:15:42;4.75;;;1.33;;
74867;SDS011;63419;42.262;12.210;2023-05-10T12:18:10;4.70;;;1.20;;
74867;SDS011;63419;42.262;12.210;2023-05-10T12:20:38;5.30;;;1.00;;
74867;SDS011;63419;42.262;12.210;2023-05-10T12:23:05;7.93;;;1.63;;
74867;SDS011;63419;42.262;12.210;2023-05-10T12:25:36;4.57;;;1.65;;
74867;SDS011;63419;42.262;12.210;2023-05-10T12:28:05;6.95;;;2.20;;
74867;SDS011;63419;42.262;12.210;2023-05-10T12:30:34;6.65;;;1.70;;
74867;SDS011;63419;42.262;12.210;2023-05-10T12:33:12;6.75;;;1.63;;
74867;SDS011;63419;42.262;12.210;2023-05-10T12:35:45;6.47;;;1.80;;
74867;SDS011;63419;42.262;12.210;2023-05-10T12:38:24;6.65;;;1.75;;
74867;SDS011;63419;42.262;12.210;2023-05-10T12:40:51;5.30;;;1.50;;
74867;SDS011;63419;42.262;12.210;2023-05-10T12:43:18;5.88;;;1.52;;
74867;SDS011;63419;42.262;12.210;2023-05-10T12:45:45;7.80;;;1.40;;
74867;SDS011;63419;42.262;12.210;2023-05-10T12:48:15;7.28;;;1.20;;
74867;SDS011;63419;42.262;12.210;2023-05-10T12:50:42;5.07;;;1.70;;
74867;SDS011;63419;42.262;12.210;2023-05-10T12:53:09;7.13;;;1.40;;
74867;SDS011;63419;42.262;12.210;2023-05-10T12:55:35;5.95;;;1.50;;
74867;SDS011;63419;42.262;12.210;2023-05-10T12:58:02;6.22;;;1.02;;
74867;SDS011;63419;42.262;12.210;2023-05-10T13:00:29;6.18;;;1.45;;
74867;SDS011;63419;42.262;12.210;2023-05-10T13:02:56;9.60;;;1.48;;
74867;SDS011;63419;42.262;12.210;2023-05-10T13:05:23;7.30;;;1.63;;
74867;SDS011;63419;42.262;12.210;2023-05-10T13:07:50;6.15;;;1.10;;
74867;SDS011;63419;42.262;12.210;2023-05-10T13:10:17;4.05;;;0.98;;
74867;SDS011;63419;42.262;12.210;2023-05-10T13:12:45;7.55;;;1.17;;
74867;SDS011;63419;42.262;12.210;2023-05-10T13:15:11;8.40;;;1.60;;
74867;SDS011;63419;42.262;12.210;2023-05-10T13:17:38;4.60;;;1.17;;
74867;SDS011;63419;42.262;12.210;2023-05-10T13:20:07;7.30;;;1.30;;
74867;SDS011;63419;42.262;12.210;2023-05-10T13:25:05;6.30;;;1.23;;
74867;SDS011;63419;42.262;12.210;2023-05-10T13:27:32;7.85;;;1.42;;
74867;SDS011;63419;42.262;12.210;2023-05-10T13:29:59;7.78;;;1.10;;
74867;SDS011;63419;42.262;12.210;2023-05-10T13:34:53;4.80;;;1.40;;
74867;SDS011;63419;42.262;12.210;2023-05-10T13:37:21;9.38;;;1.85;;
74867;SDS011;63419;42.262;12.210;2023-05-10T13:39:48;10.73;;;1.27;;
74867;SDS011;63419;42.262;12.210;2023-05-10T13:42:15;5.97;;;1.20;;
74867;SDS011;63419;42.262;12.210;2023-05-10T13:44:42;7.18;;;1.40;;
74867;SDS011;63419;42.262;12.210;2023-05-10T13:47:09;6.78;;;1.42;;
74867;SDS011;63419;42.262;12.210;2023-05-10T13:52:03;6.78;;;1.48;;
74867;SDS011;63419;42.262;12.210;2023-05-10T13:54:33;6.25;;;1.60;;
74867;SDS011;63419;42.262;12.210;2023-05-10T13:57:00;6.30;;;1.35;;
74867;SDS011;63419;42.262;12.210;2023-05-10T13:59:28;7.90;;;1.65;;
74867;SDS011;63419;42.262;12.210;2023-05-10T14:01:58;6.72;;;1.70;;
74867;SDS011;63419;42.262;12.210;2023-05-10T14:04:25;6.03;;;1.13;;
74867;SDS011;63419;42.262;12.210;2023-05-10T14:06:52;5.57;;;1.70;;
74867;SDS011;63419;42.262;12.210;2023-05-10T14:09:19;9.00;;;1.27;;
74867;SDS011;63419;42.262;12.210;2023-05-10T14:11:46;7.40;;;1.25;;
74867;SDS011;63419;42.262;12.210;2023-05-10T14:16:41;6.68;;;1.23;;
74867;SDS011;63419;42.262;12.210;2023-05-10T14:19:10;8.93;;;1.70;;
74867;SDS011;63419;42.262;12.210;2023-05-10T14:21:37;10.50;;;1.50;;
74867;SDS011;63419;42.262;12.210;2023-05-10T14:26:32;12.95;;;1.35;;
74867;SDS011;63419;42.262;12.210;2023-05-10T14:29:00;11.23;;;1.67;;
74867;SDS011;63419;42.262;12.210;2023-05-10T14:31:27;11.68;;;1.98;;
74867;SDS011;63419;42.262;12.210;2023-05-10T14:33:56;10.60;;;1.50;;
74867;SDS011;63419;42.262;12.210;2023-05-10T14:36:24;12.77;;;2.22;;
74867;SDS011;63419;42.262;12.210;2023-05-10T14:38:51;11.90;;;1.85;;
74867;SDS011;63419;42.262;12.210;2023-05-10T14:41:17;7.38;;;1.60;;
74867;SDS011;63419;42.262;12.210;2023-05-10T14:43:44;9.63;;;1.98;;
74867;SDS011;63419;42.262;12.210;2023-05-10T14:46:12;8.80;;;1.67;;
74867;SDS011;63419;42.262;12.210;2023-05-10T14:48:39;8.45;;;1.75;;
74867;SDS011;63419;42.262;12.210;2023-05-10T14:51:06;9.00;;;2.03;;
74867;SDS011;63419;42.262;12.210;2023-05-10T14:53:33;9.45;;;2.08;;
74867;SDS011;63419;42.262;12.210;2023-05-10T14:56:00;9.00;;;1.58;;
74867;SDS011;63419;42.262;12.210;2023-05-10T14:58:31;9.40;;;2.13;;
74867;SDS011;63419;42.262;12.210;2023-05-10T15:00:59;8.68;;;1.55;;
74867;SDS011;63419;42.262;12.210;2023-05-10T15:03:27;6.55;;;1.70;;
74867;SDS011;63419;42.262;12.210;2023-05-10T15:05:55;10.15;;;1.95;;
74867;SDS011;63419;42.262;12.210;2023-05-10T15:08:23;9.95;;;2.17;;
74867;SDS011;63419;42.262;12.210;2023-05-10T15:10:51;10.52;;;2.00;;
74867;SDS011;63419;42.262;12.210;2023-05-10T15:13:18;6.45;;;1.48;;
74867;SDS011;63419;42.262;12.210;2023-05-10T15:15:45;13.40;;;2.13;;
74867;SDS011;63419;42.262;12.210;2023-05-10T15:20:39;8.25;;;2.00;;
74867;SDS011;63419;42.262;12.210;2023-05-10T15:23:05;7.15;;;1.75;;
74867;SDS011;63419;42.262;12.210;2023-05-10T15:25:32;10.77;;;1.90;;
74867;SDS011;63419;42.262;12.210;2023-05-10T15:28:03;12.52;;;1.45;;
74867;SDS011;63419;42.262;12.210;2023-05-10T15:30:30;10.43;;;2.80;;
74867;SDS011;63419;42.262;12.210;2023-05-10T15:32:57;10.10;;;1.77;;
74867;SDS011;63419;42.262;12.210;2023-05-10T15:35:25;10.07;;;2.00;;
74867;SDS011;63419;42.262;12.210;2023-05-10T15:37:53;13.35;;;2.10;;
74867;SDS011;63419;42.262;12.210;2023-05-10T15:40:20;9.77;;;1.60;;
74867;SDS011;63419;42.262;12.210;2023-05-10T15:42:47;11.77;;;1.60;;
74867;SDS011;63419;42.262;12.210;2023-05-10T15:45:13;11.18;;;1.42;;
74867;SDS011;63419;42.262;12.210;2023-05-10T15:47:41;15.15;;;1.50;;
74867;SDS011;63419;42.262;12.210;2023-05-10T15:50:10;15.02;;;2.30;;
74867;SDS011;63419;42.262;12.210;2023-05-10T15:52:38;8.68;;;1.60;;
74867;SDS011;63419;42.262;12.210;2023-05-10T15:55:05;9.73;;;1.75;;
74867;SDS011;63419;42.262;12.210;2023-05-10T15:57:38;13.10;;;2.15;;
74867;SDS011;63419;42.262;12.210;2023-05-10T16:00:07;12.82;;;1.85;;
74867;SDS011;63419;42.262;12.210;2023-05-10T16:02:35;10.73;;;1.65;;
74867;SDS011;63419;42.262;12.210;2023-05-10T16:05:03;12.93;;;1.63;;
74867;SDS011;63419;42.262;12.210;2023-05-10T16:07:30;14.95;;;1.80;;
74867;SDS011;63419;42.262;12.210;2023-05-10T16:12:24;16.60;;;2.30;;
74867;SDS011;63419;42.262;12.210;2023-05-10T16:17:18;13.85;;;1.88;;
74867;SDS011;63419;42.262;12.210;2023-05-10T16:19:45;13.10;;;1.85;;
74867;SDS011;63419;42.262;12.210;2023-05-10T16:24:40;15.55;;;1.90;;
74867;SDS011;63419;42.262;12.210;2023-05-10T16:27:07;14.30;;;1.55;;
74867;SDS011;63419;42.262;12.210;2023-05-10T16:29:35;14.10;;;2.17;;